createdAt,value
2018-06-01T00:00:20.078Z,19.70
2018-06-01T00:02:47.557Z,19.70
2018-06-01T00:05:15.807Z,19.50
2018-06-01T00:07:43.275Z,19.50
2018-06-01T00:10:10.780Z,19.40
2018-06-01T00:12:38.507Z,19.50
2018-06-01T00:15:06.269Z,19.40
2018-06-01T00:17:33.751Z,19.40
2018-06-01T00:20:01.214Z,19.40
2018-06-01T00:22:28.950Z,19.40
2018-06-01T00:24:56.410Z,19.40
2018-06-01T00:27:23.888Z,19.40
2018-06-01T00:29:51.350Z,19.40
2018-06-01T00:32:19.086Z,19.40
2018-06-01T00:34:48.058Z,19.30
2018-06-01T00:37:15.536Z,19.30
2018-06-01T00:39:43.310Z,19.40
2018-06-01T00:42:11.076Z,19.40
2018-06-01T00:44:38.831Z,19.30
2018-06-01T00:47:07.832Z,19.20
2018-06-01T00:49:36.807Z,19.20
2018-06-01T00:52:04.279Z,19.20
2018-06-01T00:54:45.190Z,19.00
2018-06-01T00:57:13.414Z,18.90
2018-06-01T00:59:41.090Z,18.90
2018-06-01T01:02:08.559Z,18.90
2018-06-01T01:04:36.018Z,18.90
2018-06-01T01:07:03.498Z,18.90
2018-06-01T01:09:30.963Z,19.00
2018-06-01T01:11:58.439Z,18.90
2018-06-01T01:14:25.907Z,18.90
2018-06-01T01:16:53.383Z,18.90
2018-06-01T01:19:20.848Z,18.90
2018-06-01T01:21:48.325Z,18.90
2018-06-01T01:24:15.899Z,18.90
2018-06-01T01:26:43.362Z,18.80
2018-06-01T01:29:11.600Z,18.80
2018-06-01T01:31:39.063Z,18.90
2018-06-01T01:34:06.659Z,18.80
2018-06-01T01:36:34.142Z,18.90
2018-06-01T01:39:01.614Z,18.90
2018-06-01T01:41:29.105Z,18.90
2018-06-01T01:43:58.074Z,18.90
2018-06-01T01:46:25.621Z,18.90
2018-06-01T01:48:53.082Z,19.00
2018-06-01T01:51:20.707Z,19.00
2018-06-01T01:53:49.171Z,18.90
2018-06-01T01:56:18.138Z,18.80
2018-06-01T01:58:45.622Z,18.80
2018-06-01T02:01:13.382Z,18.90
2018-06-01T02:03:41.075Z,18.90
2018-06-01T02:06:08.535Z,18.90
2018-06-01T02:08:36.003Z,18.90
2018-06-01T02:11:03.522Z,18.90
2018-06-01T02:13:31.902Z,18.90
2018-06-01T02:16:00.898Z,18.90
2018-06-01T02:18:28.359Z,18.90
2018-06-01T02:20:57.322Z,18.70
2018-06-01T02:23:24.794Z,18.70
2018-06-01T02:25:52.419Z,18.60
2018-06-01T02:28:19.882Z,18.70
2018-06-01T02:30:47.492Z,18.70
2018-06-01T02:33:14.966Z,18.70
2018-06-01T02:35:42.423Z,18.60
2018-06-01T02:38:10.102Z,18.60
2018-06-01T02:40:37.568Z,18.60
2018-06-01T02:43:05.039Z,18.60
2018-06-01T02:45:32.538Z,18.60
2018-06-01T02:48:01.523Z,18.40
2018-06-01T02:50:29.306Z,18.40
2018-06-01T02:52:58.308Z,18.40
2018-06-01T02:55:25.838Z,18.40
2018-06-01T02:57:53.303Z,18.40
2018-06-01T03:00:20.779Z,18.40
2018-06-01T03:02:48.438Z,18.40
2018-06-01T03:05:17.423Z,18.30
2018-06-01T03:07:44.893Z,18.30
2018-06-01T03:10:13.862Z,18.30
2018-06-01T03:12:41.326Z,18.30
2018-06-01T03:15:08.803Z,18.40
2018-06-01T03:17:37.061Z,18.40
2018-06-01T03:20:04.637Z,18.30
2018-06-01T03:22:32.120Z,18.40
2018-06-01T03:25:00.346Z,18.40
2018-06-01T03:27:27.903Z,18.40
2018-06-01T03:29:55.378Z,18.50
2018-06-01T03:32:22.865Z,18.50
2018-06-01T03:34:50.330Z,18.50
2018-06-01T03:37:18.079Z,18.50
2018-06-01T03:39:45.550Z,18.50
2018-06-01T03:42:13.151Z,18.60
2018-06-01T03:44:40.622Z,18.60
2018-06-01T03:47:08.140Z,18.60
2018-06-01T03:49:35.626Z,18.70
2018-06-01T03:52:03.130Z,18.60
2018-06-01T03:54:30.622Z,18.50
2018-06-01T03:56:58.122Z,18.50
2018-06-01T03:59:25.603Z,18.50
2018-06-01T04:01:53.073Z,18.50
2018-06-01T04:04:20.543Z,18.50
2018-06-01T04:06:48.803Z,18.70
2018-06-01T04:09:16.582Z,18.60
2018-06-01T04:11:44.070Z,18.70
2018-06-01T04:14:11.721Z,18.60
2018-06-01T04:16:39.188Z,18.60
2018-06-01T04:19:06.672Z,18.70
2018-06-01T04:21:34.148Z,18.70
2018-06-01T04:24:01.622Z,18.90
2018-06-01T04:26:30.627Z,18.90
2018-06-01T04:28:58.141Z,18.90
2018-06-01T04:31:25.602Z,19.00
2018-06-01T04:33:53.310Z,19.10
2018-06-01T04:36:20.826Z,19.10
2018-06-01T04:38:48.313Z,19.20
2018-06-01T04:41:15.788Z,19.30
2018-06-01T04:43:44.046Z,19.50
2018-06-01T04:46:11.533Z,19.40
2018-06-01T04:48:39.794Z,19.60
2018-06-01T04:51:07.287Z,19.60
2018-06-01T04:53:34.765Z,19.70
2018-06-01T04:56:02.360Z,19.70
2018-06-01T04:58:29.773Z,19.80
2018-06-01T05:00:57.280Z,19.70
2018-06-01T05:03:24.893Z,19.70
2018-06-01T05:05:52.554Z,19.80
2018-06-01T05:08:20.227Z,19.80
2018-06-01T05:10:47.710Z,19.80
2018-06-01T05:13:15.205Z,19.90
2018-06-01T05:15:43.479Z,19.90
2018-06-01T05:18:10.996Z,20.00
2018-06-01T05:20:38.538Z,20.00
2018-06-01T05:23:06.098Z,20.10
2018-06-01T05:25:33.613Z,20.20
2018-06-01T05:28:01.154Z,20.40
2018-06-01T05:30:28.625Z,20.50
2018-06-01T05:32:56.291Z,20.50
2018-06-01T05:35:24.114Z,20.50
2018-06-01T05:37:52.472Z,20.60
2018-06-01T05:40:20.167Z,20.70
2018-06-01T05:42:47.801Z,20.60
2018-06-01T05:45:15.460Z,20.50
2018-06-01T05:47:43.050Z,20.30
2018-06-01T05:50:10.660Z,20.20
2018-06-01T05:52:38.477Z,20.10
2018-06-01T05:55:05.947Z,20.20
2018-06-01T05:57:33.438Z,20.40
2018-06-01T06:00:01.714Z,21.00
2018-06-01T06:02:29.986Z,21.10
2018-06-01T06:04:58.223Z,21.30
2018-06-01T06:07:25.720Z,21.30
2018-06-01T06:09:53.376Z,21.30
2018-06-01T06:12:20.979Z,21.30
2018-06-01T06:14:48.475Z,21.50
2018-06-01T06:17:15.939Z,21.70
2018-06-01T06:19:43.425Z,21.90
2018-06-01T06:22:10.953Z,22.00
2018-06-01T06:24:38.428Z,22.00
2018-06-01T06:27:05.958Z,22.00
2018-06-01T06:29:33.452Z,22.00
2018-06-01T06:32:01.079Z,22.10
2018-06-01T06:34:28.571Z,22.20
2018-06-01T06:36:56.097Z,22.40
2018-06-01T06:39:23.578Z,22.70
2018-06-01T06:41:51.138Z,23.00
2018-06-01T06:44:18.718Z,23.20
2018-06-01T06:46:46.199Z,23.40
2018-06-01T06:49:13.849Z,23.50
2018-06-01T06:51:42.091Z,23.90
2018-06-01T06:54:09.773Z,23.80
2018-06-01T06:56:37.535Z,23.80
2018-06-01T06:59:05.355Z,23.60
2018-06-01T07:01:32.991Z,23.50
2018-06-01T07:04:01.232Z,23.20
2018-06-01T07:06:28.819Z,23.10
2018-06-01T07:08:56.364Z,23.00
2018-06-01T07:11:24.124Z,23.00
2018-06-01T07:13:51.606Z,23.00
2018-06-01T07:16:19.267Z,22.90
2018-06-01T07:18:46.792Z,22.90
2018-06-01T07:21:14.259Z,22.80
2018-06-01T07:23:41.717Z,22.70
2018-06-01T07:26:09.195Z,22.70
2018-06-01T07:28:36.674Z,22.50
2018-06-01T07:31:04.152Z,22.40
2018-06-01T07:33:31.617Z,22.40
2018-06-01T07:35:59.095Z,22.40
2018-06-01T07:38:26.814Z,22.40
2018-06-01T07:40:54.294Z,22.40
2018-06-01T07:43:21.845Z,22.40
2018-06-01T07:45:49.319Z,22.40
2018-06-01T07:48:16.915Z,22.40
2018-06-01T07:50:44.607Z,22.40
2018-06-01T07:53:12.144Z,22.40
2018-06-01T07:55:39.576Z,22.30
2018-06-01T07:58:07.355Z,22.30
2018-06-01T08:00:35.054Z,22.20
2018-06-01T08:03:02.742Z,22.10
2018-06-01T08:05:30.359Z,22.00
2018-06-01T08:07:58.123Z,21.90
2018-06-01T08:10:25.732Z,21.90
2018-06-01T08:12:53.206Z,21.90
2018-06-01T08:15:20.750Z,21.80
2018-06-01T08:17:48.486Z,21.70
2018-06-01T08:20:16.047Z,21.60
2018-06-01T08:22:43.710Z,21.60
2018-06-01T08:25:11.246Z,21.60
2018-06-01T08:27:38.721Z,21.60
2018-06-01T08:30:06.471Z,21.60
2018-06-01T08:32:34.136Z,21.50
2018-06-01T08:35:01.689Z,21.50
2018-06-01T08:37:29.187Z,21.50
2018-06-01T08:39:56.647Z,21.50
2018-06-01T08:42:24.116Z,21.50
2018-06-01T08:44:51.792Z,21.40
2018-06-01T08:47:19.265Z,21.20
2018-06-01T08:49:46.722Z,21.10
2018-06-01T08:52:14.190Z,21.00
2018-06-01T08:54:41.667Z,20.90
2018-06-01T08:57:09.126Z,20.90
2018-06-01T08:59:36.602Z,20.90
2018-06-01T09:02:04.273Z,20.90
2018-06-01T09:04:31.768Z,20.90
2018-06-01T09:06:59.218Z,20.90
2018-06-01T09:09:26.725Z,20.90
2018-06-01T09:11:54.183Z,20.80
2018-06-01T09:14:21.950Z,20.80
2018-06-01T09:16:49.491Z,20.80
2018-06-01T09:19:16.910Z,20.80
2018-06-01T09:21:44.374Z,20.80
2018-06-01T09:24:11.929Z,20.80
2018-06-01T09:26:39.386Z,20.70
2018-06-01T09:29:06.850Z,20.80
2018-06-01T09:31:34.314Z,20.80
2018-06-01T09:34:01.787Z,20.70
2018-06-01T09:36:29.251Z,20.80
2018-06-01T09:38:56.723Z,20.80
2018-06-01T09:41:24.181Z,20.80
2018-06-01T09:43:51.900Z,20.80
2018-06-01T09:46:19.572Z,20.80
2018-06-01T09:48:47.200Z,20.80
2018-06-01T09:51:14.737Z,20.70
2018-06-01T09:53:42.198Z,20.60
2018-06-01T09:56:09.664Z,20.60
2018-06-01T09:58:37.183Z,20.60
2018-06-01T10:01:10.516Z,20.60
2018-06-01T10:03:38.170Z,20.50
2018-06-01T10:06:05.643Z,20.50
2018-06-01T10:08:33.314Z,20.40
2018-06-01T10:11:06.465Z,20.50
2018-06-01T10:13:34.148Z,20.60
2018-06-01T10:16:01.911Z,20.70
2018-06-01T10:18:29.595Z,20.70
2018-06-01T10:20:57.138Z,20.80
2018-06-01T10:23:24.906Z,20.80
2018-06-01T10:25:52.366Z,20.70
2018-06-01T10:28:19.827Z,20.80
2018-06-01T10:30:47.579Z,20.90
2018-06-01T10:33:15.062Z,21.00
2018-06-01T10:35:42.708Z,21.10
2018-06-01T10:38:10.173Z,21.20
2018-06-01T10:40:37.671Z,21.40
2018-06-01T10:43:05.183Z,21.70
2018-06-01T10:45:32.654Z,21.90
2018-06-01T10:48:00.255Z,22.30
2018-06-01T10:50:28.015Z,22.60
2018-06-01T10:52:55.543Z,22.80
2018-06-01T10:55:23.014Z,23.10
2018-06-01T10:57:50.896Z,23.40
2018-06-01T11:00:18.534Z,23.70
2018-06-01T11:02:46.074Z,24.10
2018-06-01T11:05:13.839Z,24.40
2018-06-01T11:07:41.640Z,24.60
2018-06-01T11:10:09.107Z,24.80
2018-06-01T11:12:36.580Z,24.80
2018-06-01T11:15:04.282Z,24.90
2018-06-01T11:17:31.970Z,24.80
2018-06-01T11:19:59.507Z,24.50
2018-06-01T11:22:26.982Z,24.80
2018-06-01T11:24:54.646Z,25.10
2018-06-01T11:27:22.127Z,25.00
2018-06-01T11:29:49.578Z,25.00
2018-06-01T11:32:17.125Z,25.00
2018-06-01T11:34:44.536Z,24.90
2018-06-01T11:37:12.007Z,24.80
2018-06-01T11:39:39.787Z,24.80
2018-06-01T11:42:07.247Z,24.70
2018-06-01T11:44:34.899Z,24.70
2018-06-01T11:47:02.473Z,24.60
2018-06-01T11:49:29.952Z,24.60
2018-06-01T11:51:57.612Z,24.90
2018-06-01T11:54:25.144Z,25.40
2018-06-01T11:56:52.615Z,26.80
2018-06-01T11:59:20.077Z,28.40
2018-06-01T12:01:47.833Z,29.50
2018-06-01T12:04:15.327Z,30.50
2018-06-01T12:06:43.024Z,32.10
2018-06-01T12:09:10.506Z,33.00
2018-06-01T12:11:37.974Z,33.30
2018-06-01T12:14:06.954Z,33.70
2018-06-01T12:16:34.442Z,33.70
2018-06-01T12:19:02.035Z,34.50
2018-06-01T12:21:29.562Z,35.80
2018-06-01T12:23:57.039Z,36.90
2018-06-01T12:26:25.394Z,37.40
2018-06-01T12:28:53.094Z,37.40
2018-06-01T12:31:20.706Z,37.30
2018-06-01T12:33:48.170Z,38.30
2018-06-01T12:36:15.943Z,39.10
2018-06-01T12:38:43.704Z,40.00
2018-06-01T12:41:11.166Z,40.70
2018-06-01T12:43:38.640Z,41.00
2018-06-01T12:46:06.131Z,40.80
2018-06-01T12:48:33.603Z,39.40
2018-06-01T12:51:01.073Z,39.40
2018-06-01T12:53:28.566Z,38.50
2018-06-01T12:55:56.978Z,38.00
2018-06-01T12:58:24.606Z,37.90
2018-06-01T13:00:52.358Z,37.70
2018-06-01T13:03:20.122Z,37.90
2018-06-01T13:05:47.586Z,36.70
2018-06-01T13:08:15.062Z,35.70
2018-06-01T13:10:42.807Z,34.70
2018-06-01T13:13:10.562Z,33.70
2018-06-01T13:15:39.534Z,32.60
2018-06-01T13:18:07.330Z,32.60
2018-06-01T13:20:36.394Z,31.50
2018-06-01T13:23:04.700Z,30.90
2018-06-01T13:25:32.182Z,30.90
2018-06-01T13:27:59.771Z,30.50
2018-06-01T13:30:27.383Z,29.90
2018-06-01T13:32:55.154Z,29.80
2018-06-01T13:35:22.857Z,30.30
2018-06-01T13:37:51.090Z,31.20
2018-06-01T13:40:18.651Z,32.20
2018-06-01T13:42:46.126Z,33.00
2018-06-01T13:45:13.663Z,34.20
2018-06-01T13:47:42.710Z,35.80
2018-06-01T13:50:10.349Z,35.80
2018-06-01T13:52:38.651Z,36.00
2018-06-01T13:55:06.170Z,35.90
2018-06-01T13:57:33.657Z,34.80
2018-06-01T14:00:01.148Z,33.60
2018-06-01T14:02:28.605Z,32.50
2018-06-01T14:04:56.075Z,31.60
2018-06-01T14:07:23.542Z,30.80
2018-06-01T14:09:51.011Z,30.30
2018-06-01T14:12:18.781Z,29.80
2018-06-01T14:14:46.247Z,29.50
2018-06-01T14:17:13.711Z,29.50
2018-06-01T14:19:41.207Z,29.70
2018-06-01T14:22:08.829Z,29.80
2018-06-01T14:24:36.290Z,29.80
2018-06-01T14:27:03.762Z,30.10
2018-06-01T14:29:31.231Z,30.20
2018-06-01T14:31:58.751Z,30.00
2018-06-01T14:34:26.510Z,30.10
2018-06-01T14:36:53.978Z,29.60
2018-06-01T14:39:21.447Z,29.20
2018-06-01T14:41:48.915Z,28.80
2018-06-01T14:44:16.386Z,28.00
2018-06-01T14:46:43.858Z,27.20
2018-06-01T14:49:11.482Z,26.70
2018-06-01T14:51:38.960Z,26.40
2018-06-01T14:54:07.196Z,25.80
2018-06-01T14:56:34.654Z,25.70
2018-06-01T14:59:02.126Z,25.60
2018-06-01T15:01:29.589Z,25.30
2018-06-01T15:03:57.191Z,25.10
2018-06-01T15:06:24.693Z,25.00
2018-06-01T15:08:53.083Z,24.80
2018-06-01T15:11:20.839Z,24.70
2018-06-01T15:13:48.304Z,24.50
2018-06-01T15:16:16.220Z,24.20
2018-06-01T15:18:43.828Z,23.90
2018-06-01T15:21:11.286Z,23.70
2018-06-01T15:23:38.751Z,23.60
2018-06-01T15:26:06.210Z,23.50
2018-06-01T15:28:33.795Z,23.50
2018-06-01T15:31:02.031Z,23.50
2018-06-01T15:33:29.515Z,23.50
2018-06-01T15:35:57.191Z,23.50
2018-06-01T15:38:24.657Z,23.50
2018-06-01T15:40:52.960Z,23.30
2018-06-01T15:43:21.178Z,23.50
2018-06-01T15:45:48.663Z,23.50
2018-06-01T15:48:16.257Z,23.50
2018-06-01T15:50:43.868Z,23.60
2018-06-01T15:53:11.348Z,23.70
2018-06-01T15:55:39.087Z,23.70
2018-06-01T15:58:06.851Z,23.70
2018-06-01T16:00:34.614Z,23.70
2018-06-01T16:03:02.314Z,23.70
2018-06-01T16:05:29.839Z,23.60
2018-06-01T16:07:57.300Z,23.70
2018-06-01T16:10:24.775Z,23.60
2018-06-01T16:12:52.316Z,23.50
2018-06-01T16:15:19.790Z,23.30
2018-06-01T16:17:48.070Z,23.20
2018-06-01T16:20:15.811Z,23.20
2018-06-01T16:22:43.575Z,23.20
2018-06-01T16:25:11.259Z,23.10
2018-06-01T16:27:38.735Z,23.10
2018-06-01T16:30:06.259Z,23.00
2018-06-01T16:32:33.726Z,23.10
2018-06-01T16:35:01.191Z,23.20
2018-06-01T16:37:28.950Z,23.30
2018-06-01T16:39:56.445Z,23.20
2018-06-01T16:42:24.142Z,23.30
2018-06-01T16:44:51.614Z,23.20
2018-06-01T16:47:19.086Z,23.10
2018-06-01T16:49:46.554Z,23.10
2018-06-01T16:52:14.305Z,22.90
2018-06-01T16:54:42.067Z,22.70
2018-06-01T16:57:09.606Z,22.60
2018-06-01T16:59:37.205Z,22.50
2018-06-01T17:02:05.441Z,22.40
2018-06-01T17:04:32.907Z,22.40
2018-06-01T17:07:00.595Z,22.40
2018-06-01T17:09:28.062Z,22.50
2018-06-01T17:11:55.530Z,22.40
2018-06-01T17:14:23.270Z,22.30
2018-06-01T17:16:51.038Z,22.30
2018-06-01T17:19:18.716Z,22.10
2018-06-01T17:21:46.416Z,22.10
2018-06-01T17:24:14.023Z,22.00
2018-06-01T17:26:41.711Z,21.70
2018-06-01T17:29:10.170Z,21.60
2018-06-01T17:31:37.637Z,21.50
2018-06-01T17:34:05.395Z,21.50
2018-06-01T17:36:33.170Z,21.50
2018-06-01T17:39:00.679Z,21.40
2018-06-01T17:41:28.134Z,21.30
2018-06-01T17:43:55.599Z,21.20
2018-06-01T17:46:23.079Z,21.30
2018-06-01T17:48:50.557Z,21.30
2018-06-01T17:51:18.130Z,21.20
2018-06-01T17:53:45.619Z,21.10
2018-06-01T17:56:13.094Z,21.10
2018-06-01T17:58:40.586Z,21.10
2018-06-01T18:01:08.072Z,21.10
2018-06-01T18:03:35.535Z,21.10
2018-06-01T18:06:03.020Z,21.00
2018-06-01T18:08:30.489Z,21.00
2018-06-01T18:10:58.102Z,21.10
2018-06-01T18:13:25.576Z,21.00
2018-06-01T18:15:53.103Z,21.00
2018-06-01T18:18:20.871Z,21.00
2018-06-01T18:20:48.363Z,20.90
2018-06-01T18:23:15.851Z,20.80
2018-06-01T18:25:43.315Z,20.80
2018-06-01T18:28:10.786Z,20.70
2018-06-01T18:30:38.267Z,20.60
2018-06-01T18:33:05.758Z,20.40
2018-06-01T18:35:33.449Z,20.30
2018-06-01T18:38:00.922Z,20.20
2018-06-01T18:40:28.618Z,20.20
2018-06-01T18:42:56.375Z,20.10
2018-06-01T18:45:23.854Z,20.00
2018-06-01T18:47:51.963Z,19.90
2018-06-01T18:50:19.457Z,20.00
2018-06-01T18:52:46.951Z,20.00
2018-06-01T18:55:15.207Z,19.90
2018-06-01T18:57:42.682Z,19.90
2018-06-01T19:00:10.159Z,20.00
2018-06-01T19:02:37.642Z,19.90
2018-06-01T19:05:05.146Z,19.80
2018-06-01T19:07:32.662Z,19.70
2018-06-01T19:10:00.130Z,19.80
2018-06-01T19:12:27.647Z,19.70
2018-06-01T19:14:55.192Z,19.70
2018-06-01T19:17:23.468Z,19.70
2018-06-01T19:19:50.941Z,19.70
2018-06-01T19:22:18.418Z,19.70
2018-06-01T19:24:45.919Z,19.80
2018-06-01T19:27:13.382Z,19.80
2018-06-01T19:29:41.159Z,19.80
2018-06-01T19:32:08.666Z,19.70
2018-06-01T19:34:36.335Z,19.80
2018-06-01T19:37:03.768Z,19.70
2018-06-01T19:39:31.247Z,19.60
2018-06-01T19:41:58.769Z,19.70
2018-06-01T19:44:26.264Z,19.60
2018-06-01T19:46:53.726Z,19.60
2018-06-01T19:49:21.426Z,19.50
2018-06-01T19:51:48.899Z,19.50
2018-06-01T19:54:16.545Z,19.50
2018-06-01T19:56:44.016Z,19.50
2018-06-01T19:59:11.549Z,19.50
2018-06-01T20:01:39.327Z,19.50
2018-06-01T20:04:08.291Z,19.30
2018-06-01T20:06:36.099Z,19.30
2018-06-01T20:09:03.587Z,19.30
2018-06-01T20:11:31.042Z,19.30
2018-06-01T20:13:58.727Z,19.20
2018-06-01T20:16:26.239Z,19.10
2018-06-01T20:18:53.789Z,19.10
2018-06-01T20:21:21.265Z,19.10
2018-06-01T20:23:49.496Z,19.10
2018-06-01T20:26:16.960Z,19.20
2018-06-01T20:28:44.435Z,19.10
2018-06-01T20:31:11.901Z,19.10
2018-06-01T20:33:39.576Z,19.10
2018-06-01T20:36:07.058Z,19.10
2018-06-01T20:38:34.525Z,19.10
2018-06-01T20:41:02.000Z,19.00
2018-06-01T20:43:29.512Z,19.00
2018-06-01T20:45:57.747Z,19.00
2018-06-01T20:48:25.262Z,19.10
2018-06-01T20:50:52.742Z,19.10
2018-06-01T20:53:20.233Z,19.00
2018-06-01T20:55:48.013Z,19.00
2018-06-01T20:58:17.012Z,19.00
2018-06-01T21:00:44.771Z,19.00
2018-06-01T21:03:13.813Z,18.80
2018-06-01T21:05:41.311Z,18.90
2018-06-01T21:08:08.790Z,18.80
2018-06-01T21:10:36.269Z,18.80
2018-06-01T21:13:04.503Z,18.70
2018-06-01T21:15:31.979Z,18.70
2018-06-01T21:18:00.962Z,18.60
2018-06-01T21:20:28.438Z,18.60
2018-06-01T21:22:55.918Z,18.70
2018-06-01T21:25:23.382Z,18.60
2018-06-01T21:27:51.871Z,18.60
2018-06-01T21:30:19.336Z,18.60
2018-06-01T21:32:46.875Z,18.70
2018-06-01T21:35:14.416Z,18.70
2018-06-01T21:37:42.791Z,18.50
2018-06-01T21:40:11.783Z,18.50
2018-06-01T21:42:40.758Z,18.50
2018-06-01T21:45:08.233Z,18.50
2018-06-01T21:47:35.706Z,18.40
2018-06-01T21:50:03.197Z,18.40
2018-06-01T21:52:30.923Z,18.50
2018-06-01T21:54:58.416Z,18.50
2018-06-01T21:57:25.904Z,18.50
2018-06-01T21:59:53.374Z,18.50
2018-06-01T22:02:20.860Z,18.40
2018-06-01T22:04:48.514Z,18.40
2018-06-01T22:07:17.510Z,18.40
2018-06-01T22:09:46.520Z,18.30
2018-06-01T22:12:13.982Z,18.20
2018-06-01T22:14:41.736Z,18.20
2018-06-01T22:17:09.502Z,18.20
2018-06-01T22:19:37.264Z,18.20
2018-06-01T22:22:05.536Z,18.00
2018-06-01T22:24:33.094Z,18.00
2018-06-01T22:27:02.073Z,18.00
2018-06-01T22:29:29.567Z,18.00
2018-06-01T22:31:57.034Z,17.90
2018-06-01T22:34:24.519Z,17.90
2018-06-01T22:36:52.222Z,18.00
2018-06-01T22:39:21.194Z,17.90
2018-06-01T22:41:48.691Z,17.90
2018-06-01T22:44:17.046Z,17.80
2018-06-01T22:46:44.525Z,17.80
2018-06-01T22:49:12.771Z,17.70
2018-06-01T22:51:40.305Z,17.70
2018-06-01T22:54:07.773Z,17.80
2018-06-01T22:56:35.258Z,17.70
2018-06-01T22:59:02.739Z,17.50
2018-06-01T23:01:30.203Z,17.50
2018-06-01T23:03:57.673Z,17.40
2018-06-01T23:06:25.140Z,17.20
2018-06-01T23:08:52.624Z,17.20
2018-06-01T23:11:20.083Z,17.10
2018-06-01T23:13:47.706Z,17.10
2018-06-01T23:16:15.179Z,17.00
2018-06-01T23:18:42.855Z,17.00
2018-06-01T23:21:10.321Z,17.00
2018-06-01T23:23:37.790Z,17.00
2018-06-01T23:26:05.272Z,17.00
2018-06-01T23:28:32.779Z,17.10
2018-06-01T23:31:00.258Z,17.00
2018-06-01T23:33:27.732Z,17.00
2018-06-01T23:35:55.200Z,17.00
2018-06-01T23:38:22.682Z,16.90
2018-06-01T23:40:50.141Z,16.90
2018-06-01T23:43:17.810Z,16.90
2018-06-01T23:45:45.361Z,16.80
2018-06-01T23:48:12.830Z,16.90
2018-06-01T23:50:40.511Z,17.00
2018-06-01T23:53:07.994Z,16.90
2018-06-01T23:55:35.466Z,17.00
2018-06-01T23:58:02.946Z,17.00
